Time;durP1;ratioP1;P1;durP2;ratioP2;P2;SDS_P1;SDS_P2;PMS_P1;PMS_P2;Temp;Humidity;BMP_temperature;BMP_pressure;BME280_temperature;BME280_humidity;BME280_pressure;Samples;Min_cycle;Max_cycle;Signal;HPM_P1;HPM_P2
2022/01/16 00:00:42;;;;;;;10.27;6.33;;;;;;;;;;4921108;29;20194;-76
2022/01/16 00:05:54;;;;;;;10.07;6.13;;;;;;;;;;4923863;29;20225;-76
2022/01/16 00:08:20;;;;;;;12.13;6.23;;;;;;;;;;4921154;29;20217;-75
2022/01/16 00:10:46;;;;;;;12.53;7.03;;;;;;;;;;4920942;29;20182;-75
2022/01/16 00:13:12;;;;;;;11.63;6.40;;;;;;;;;;4920751;29;20189;-75
2022/01/16 00:15:38;;;;;;;10.47;7.07;;;;;;;;;;4920751;29;20210;-75
2022/01/16 00:20:31;;;;;;;10.37;6.30;;;;;;;;;;4920880;29;20186;-75
2022/01/16 00:22:58;;;;;;;11.87;7.40;;;;;;;;;;4920270;29;20174;-75
2022/01/16 00:25:24;;;;;;;10.90;6.73;;;;;;;;;;4920388;29;20657;-75
2022/01/16 00:27:50;;;;;;;12.23;6.87;;;;;;;;;;4920761;29;20558;-75
2022/01/16 00:30:17;;;;;;;11.43;7.03;;;;;;;;;;4920364;29;20669;-75
2022/01/16 00:32:43;;;;;;;12.83;6.87;;;;;;;;;;4920564;29;20182;-75
2022/01/16 00:35:09;;;;;;;13.10;6.90;;;;;;;;;;4904647;29;20221;-75
2022/01/16 00:37:35;;;;;;;11.10;6.47;;;;;;;;;;4904653;29;20194;-75
2022/01/16 00:40:01;;;;;;;10.20;6.60;;;;;;;;;;4904119;29;20202;-75
2022/01/16 00:42:27;;;;;;;7.93;5.77;;;;;;;;;;4920515;29;20240;-75
2022/01/16 00:44:53;;;;;;;6.93;4.97;;;;;;;;;;4904545;29;20205;-75
2022/01/16 00:47:19;;;;;;;7.77;4.97;;;;;;;;;;4904595;29;20260;-75
2022/01/16 00:49:45;;;;;;;7.57;5.00;;;;;;;;;;4904537;29;20606;-75
2022/01/16 00:52:11;;;;;;;6.30;4.37;;;;;;;;;;4920106;29;20182;-75
2022/01/16 00:54:38;;;;;;;6.00;4.17;;;;;;;;;;4904226;29;20233;-75
2022/01/16 00:57:04;;;;;;;6.03;4.33;;;;;;;;;;4920238;29;20193;-75
2022/01/16 00:59:30;;;;;;;6.27;4.10;;;;;;;;;;4919980;29;20197;-75
2022/01/16 01:01:56;;;;;;;7.93;4.83;;;;;;;;;;4904269;29;20177;-75
2022/01/16 01:04:22;;;;;;;8.97;5.53;;;;;;;;;;4903983;29;20220;-75
2022/01/16 01:06:50;;;;;;;7.40;4.90;;;;;;;;;;4919823;29;20190;-75
2022/01/16 01:09:17;;;;;;;8.33;4.93;;;;;;;;;;4904252;29;20217;-75
2022/01/16 01:11:45;;;;;;;7.80;5.17;;;;;;;;;;4919931;29;20177;-75
2022/01/16 01:14:21;;;;;;;10.03;6.37;;;;;;;;;;4919590;29;20211;-75
2022/01/16 01:16:55;;;;;;;8.20;5.90;;;;;;;;;;4905404;29;20182;-75
2022/01/16 01:19:28;;;;;;;11.00;6.87;;;;;;;;;;4919453;29;20197;-75
2022/01/16 01:21:54;;;;;;;12.67;8.03;;;;;;;;;;4904225;29;20656;-75
2022/01/16 01:24:22;;;;;;;13.10;8.67;;;;;;;;;;4903706;29;20661;-75
2022/01/16 01:26:55;;;;;;;13.67;8.57;;;;;;;;;;4904192;29;20197;-75
2022/01/16 01:29:21;;;;;;;14.07;8.70;;;;;;;;;;4904613;29;20691;-74
2022/01/16 01:31:47;;;;;;;13.43;8.80;;;;;;;;;;4919398;29;20782;-75
2022/01/16 01:34:13;;;;;;;15.53;9.63;;;;;;;;;;4919245;29;20213;-76
2022/01/16 01:36:40;;;;;;;15.37;9.30;;;;;;;;;;4903807;29;20185;-76
2022/01/16 01:39:06;;;;;;;14.77;9.60;;;;;;;;;;4919480;29;20209;-75
2022/01/16 01:41:32;;;;;;;13.83;8.63;;;;;;;;;;4919231;29;20177;-75
2022/01/16 01:52:11;;;;;;;14.87;9.63;;;;;;;;;;4921141;29;20195;-75
2022/01/16 01:54:37;;;;;;;16.43;10.17;;;;;;;;;;4903023;29;20201;-75
2022/01/16 01:57:03;;;;;;;15.60;10.17;;;;;;;;;;4903231;29;20217;-75
2022/01/16 01:59:29;;;;;;;15.93;9.93;;;;;;;;;;4903035;29;20739;-75
2022/01/16 02:01:55;;;;;;;16.13;10.67;;;;;;;;;;4903248;29;20185;-74
2022/01/16 02:04:21;;;;;;;17.60;11.13;;;;;;;;;;4918482;29;20573;-75
2022/01/16 02:06:48;;;;;;;17.80;11.13;;;;;;;;;;4903082;29;20189;-75
2022/01/16 02:09:14;;;;;;;17.67;11.50;;;;;;;;;;4918716;29;20212;-75
2022/01/16 02:11:40;;;;;;;17.57;11.40;;;;;;;;;;4902853;29;20189;-75
2022/01/16 02:35:38;;;;;;;16.93;11.03;;;;;;;;;;4935200;29;20213;-75
2022/01/16 02:38:06;;;;;;;17.23;11.37;;;;;;;;;;4902708;29;20193;-75
2022/01/16 02:40:33;;;;;;;18.50;11.80;;;;;;;;;;4918214;29;20637;-75
2022/01/16 02:42:59;;;;;;;16.90;11.47;;;;;;;;;;4902495;29;20240;-75
2022/01/16 02:45:29;;;;;;;15.73;10.97;;;;;;;;;;4902547;29;20185;-74
2022/01/16 02:47:57;;;;;;;16.67;10.67;;;;;;;;;;4903020;29;20190;-76
2022/01/16 02:50:23;;;;;;;16.63;10.90;;;;;;;;;;4902310;29;20193;-74
2022/01/16 02:52:49;;;;;;;16.90;11.30;;;;;;;;;;4918141;29;20185;-75
2022/01/16 02:55:15;;;;;;;17.00;11.27;;;;;;;;;;4902015;29;20635;-75
2022/01/16 02:57:41;;;;;;;17.43;10.83;;;;;;;;;;4902681;29;20182;-75
2022/01/16 03:00:08;;;;;;;19.37;12.00;;;;;;;;;;4917836;29;20668;-75
2022/01/16 03:02:34;;;;;;;16.20;10.73;;;;;;;;;;4917780;29;20183;-75
2022/01/16 03:05:00;;;;;;;16.17;10.57;;;;;;;;;;4902094;29;20189;-75
2022/01/16 03:07:27;;;;;;;14.63;10.47;;;;;;;;;;4917926;29;20182;-74
2022/01/16 03:12:40;;;;;;;19.00;12.00;;;;;;;;;;4935050;29;20189;-74
2022/01/16 03:15:07;;;;;;;19.13;11.67;;;;;;;;;;4902146;29;20233;-76
2022/01/16 03:21:52;;;;;;;17.67;12.00;;;;;;;;;;4902319;29;20734;-75
2022/01/16 03:23:10;;;;;;;16.30;10.10;;;;;;;;;;4920496;29;20273;-75
2022/01/16 03:25:36;;;;;;;15.30;9.73;;;;;;;;;;4901876;29;20236;-75
2022/01/16 03:28:02;;;;;;;14.93;9.47;;;;;;;;;;4902141;29;20189;-75
2022/01/16 03:30:28;;;;;;;15.30;9.53;;;;;;;;;;4917734;29;20296;-75
2022/01/16 03:32:54;;;;;;;15.70;10.33;;;;;;;;;;4917580;29;20181;-75
2022/01/16 03:35:20;;;;;;;15.73;9.87;;;;;;;;;;4917620;29;20284;-75
2022/01/16 03:37:46;;;;;;;13.67;9.07;;;;;;;;;;4917764;29;20185;-75
2022/01/16 03:40:13;;;;;;;15.27;9.33;;;;;;;;;;4901831;29;20209;-75
2022/01/16 03:42:40;;;;;;;15.10;8.57;;;;;;;;;;4902143;29;20186;-74
2022/01/16 03:45:06;;;;;;;12.30;7.70;;;;;;;;;;4917408;29;20269;-74
2022/01/16 03:47:32;;;;;;;13.53;7.97;;;;;;;;;;4901826;29;20189;-75
2022/01/16 03:49:58;;;;;;;12.93;8.30;;;;;;;;;;4902008;29;20264;-75
2022/01/16 03:52:25;;;;;;;13.63;8.27;;;;;;;;;;4917747;29;20717;-75
2022/01/16 03:54:51;;;;;;;11.27;7.00;;;;;;;;;;4917343;29;20306;-74
2022/01/16 03:57:17;;;;;;;10.87;7.57;;;;;;;;;;4917498;29;20250;-74
2022/01/16 03:59:43;;;;;;;10.50;6.87;;;;;;;;;;4917405;29;20197;-74
2022/01/16 04:02:09;;;;;;;10.83;7.17;;;;;;;;;;4917346;29;20245;-74
2022/01/16 04:04:35;;;;;;;9.37;6.07;;;;;;;;;;4934307;29;20185;-74
2022/01/16 04:07:01;;;;;;;13.40;7.20;;;;;;;;;;4901786;29;20196;-75
2022/01/16 04:09:27;;;;;;;11.67;7.00;;;;;;;;;;4901539;29;20228;-74
2022/01/16 04:11:56;;;;;;;12.53;8.03;;;;;;;;;;4901622;29;20292;-75
2022/01/16 04:15:31;;;;;;;18.27;10.67;;;;;;;;;;4917979;29;20204;-75
2022/01/16 04:17:10;;;;;;;18.33;11.40;;;;;;;;;;4923463;29;20196;-74
2022/01/16 04:19:36;;;;;;;22.43;12.40;;;;;;;;;;4905000;29;20219;-74
2022/01/16 04:22:02;;;;;;;20.53;13.03;;;;;;;;;;4920675;29;20189;-74
2022/01/16 04:24:28;;;;;;;23.80;13.70;;;;;;;;;;4920365;29;20184;-76
2022/01/16 04:26:54;;;;;;;20.53;13.50;;;;;;;;;;4920536;29;20212;-74
2022/01/16 04:29:20;;;;;;;23.50;14.37;;;;;;;;;;4904752;29;20311;-75
2022/01/16 04:31:46;;;;;;;20.20;12.43;;;;;;;;;;4904947;29;20566;-74
2022/01/16 04:34:12;;;;;;;21.73;13.27;;;;;;;;;;4937229;29;20201;-74
2022/01/16 04:36:38;;;;;;;21.13;13.53;;;;;;;;;;4904944;29;20189;-74
2022/01/16 04:39:13;;;;;;;21.80;13.40;;;;;;;;;;4920381;29;20198;-74
2022/01/16 04:44:23;;;;;;;22.43;13.23;;;;;;;;;;4922978;29;20204;-74
2022/01/16 04:46:49;;;;;;;25.80;14.07;;;;;;;;;;4920211;29;20185;-74
2022/01/16 04:49:15;;;;;;;26.60;15.87;;;;;;;;;;4920037;29;20564;-75
2022/01/16 04:51:41;;;;;;;21.70;14.07;;;;;;;;;;4904479;29;20186;-74
2022/01/16 04:54:08;;;;;;;22.87;14.30;;;;;;;;;;4904134;29;20217;-75
2022/01/16 04:56:34;;;;;;;26.20;14.50;;;;;;;;;;4904534;29;20233;-75
2022/01/16 04:59:00;;;;;;;23.17;14.03;;;;;;;;;;4904461;29;20213;-74
2022/01/16 05:01:26;;;;;;;20.87;13.10;;;;;;;;;;4920068;29;20188;-74
2022/01/16 05:03:53;;;;;;;21.43;13.60;;;;;;;;;;4919699;29;20592;-74
2022/01/16 05:06:19;;;;;;;25.40;14.70;;;;;;;;;;4920150;29;20190;-74
2022/01/16 05:08:45;;;;;;;23.77;13.50;;;;;;;;;;4936809;29;20217;-74
2022/01/16 05:11:13;;;;;;;22.97;14.27;;;;;;;;;;4920047;29;20181;-75
2022/01/16 05:18:52;;;;;;;21.10;13.03;;;;;;;;;;4922650;29;20293;-75
2022/01/16 05:21:18;;;;;;;22.50;13.70;;;;;;;;;;4919377;29;20178;-76
2022/01/16 05:23:44;;;;;;;23.57;13.77;;;;;;;;;;4919573;29;20184;-74
2022/01/16 05:26:11;;;;;;;25.23;14.43;;;;;;;;;;4903751;29;20708;-75
2022/01/16 05:28:37;;;;;;;25.47;14.60;;;;;;;;;;4903924;29;20257;-74
2022/01/16 05:31:04;;;;;;;26.50;14.80;;;;;;;;;;4919339;29;20190;-74
2022/01/16 05:33:30;;;;;;;25.07;14.30;;;;;;;;;;4919029;29;20193;-75
2022/01/16 05:35:57;;;;;;;27.17;15.20;;;;;;;;;;4919127;29;20209;-75
2022/01/16 05:38:23;;;;;;;27.60;15.60;;;;;;;;;;4919138;29;20251;-75
2022/01/16 05:40:49;;;;;;;26.23;14.53;;;;;;;;;;4903662;29;20192;-74
2022/01/16 05:43:15;;;;;;;28.03;15.83;;;;;;;;;;4903517;29;20289;-74
2022/01/16 05:45:41;;;;;;;29.53;15.63;;;;;;;;;;4936103;29;20192;-74
2022/01/16 05:48:07;;;;;;;28.57;15.93;;;;;;;;;;4903398;29;20185;-75
2022/01/16 05:50:33;;;;;;;30.43;16.60;;;;;;;;;;4919239;29;20192;-74
2022/01/16 05:53:00;;;;;;;27.80;16.23;;;;;;;;;;4918946;29;20190;-74
2022/01/16 05:55:29;;;;;;;32.03;17.23;;;;;;;;;;4918642;29;20292;-74
2022/01/16 05:57:55;;;;;;;29.43;16.30;;;;;;;;;;4918913;29;20177;-74
2022/01/16 06:00:21;;;;;;;26.77;14.83;;;;;;;;;;4918712;29;20188;-74
2022/01/16 06:02:47;;;;;;;27.70;15.30;;;;;;;;;;4918886;29;20189;-74
2022/01/16 06:05:13;;;;;;;29.30;15.43;;;;;;;;;;4902936;29;20193;-75
2022/01/16 06:07:44;;;;;;;28.03;15.03;;;;;;;;;;4935659;29;20224;-75
2022/01/16 06:10:12;;;;;;;28.17;15.00;;;;;;;;;;4954598;23;20254;-76
2022/01/16 06:12:38;;;;;;;26.67;13.77;;;;;;;;;;4915873;29;20188;-76
2022/01/16 06:15:05;;;;;;;26.77;14.40;;;;;;;;;;4899706;29;20248;-76
2022/01/16 06:17:31;;;;;;;27.47;13.27;;;;;;;;;;4899968;29;20208;-75
2022/01/16 06:19:57;;;;;;;26.10;14.37;;;;;;;;;;4916758;29;20208;-77
2022/01/16 06:22:23;;;;;;;26.77;14.63;;;;;;;;;;4916658;29;20650;-77
2022/01/16 06:24:49;;;;;;;26.47;14.07;;;;;;;;;;4899834;29;20237;-76
2022/01/16 06:27:15;;;;;;;27.27;14.30;;;;;;;;;;4915669;29;20190;-76
2022/01/16 06:29:41;;;;;;;30.43;14.53;;;;;;;;;;4899612;29;20218;-76
2022/01/16 06:32:07;;;;;;;28.93;14.43;;;;;;;;;;4915395;29;20186;-76
2022/01/16 06:34:33;;;;;;;25.53;13.50;;;;;;;;;;4915383;29;20214;-76
2022/01/16 06:36:59;;;;;;;27.77;13.73;;;;;;;;;;4915147;29;20253;-76
2022/01/16 06:39:28;;;;;;;23.53;12.13;;;;;;;;;;4899609;29;20223;-76
2022/01/16 06:41:54;;;;;;;25.17;11.70;;;;;;;;;;4915274;29;20675;-76
2022/01/16 06:44:20;;;;;;;22.87;11.97;;;;;;;;;;4899576;29;20242;-77
2022/01/16 06:46:46;;;;;;;25.13;12.83;;;;;;;;;;4915272;29;20292;-77
2022/01/16 06:49:12;;;;;;;28.23;13.47;;;;;;;;;;4915396;29;20218;-77
2022/01/16 06:51:39;;;;;;;25.60;13.07;;;;;;;;;;4915399;29;20233;-76
2022/01/16 06:54:05;;;;;;;24.40;11.93;;;;;;;;;;4914979;29;20193;-76
2022/01/16 06:56:31;;;;;;;24.20;12.70;;;;;;;;;;4899749;29;20189;-77
2022/01/16 06:58:57;;;;;;;29.53;13.03;;;;;;;;;;4899478;29;20208;-77
2022/01/16 07:01:23;;;;;;;27.60;13.90;;;;;;;;;;4915397;29;20225;-77
2022/01/16 07:03:50;;;;;;;27.17;13.27;;;;;;;;;;4915237;29;20189;-79
2022/01/16 07:06:16;;;;;;;29.20;14.27;;;;;;;;;;4915298;29;20182;-78
2022/01/16 07:08:42;;;;;;;28.80;13.27;;;;;;;;;;4915331;29;20197;-79
2022/01/16 07:11:08;;;;;;;32.43;14.27;;;;;;;;;;4915470;29;20284;-78
2022/01/16 07:13:34;;;;;;;29.27;13.27;;;;;;;;;;4916307;29;20181;-77
2022/01/16 07:16:01;;;;;;;25.80;12.73;;;;;;;;;;4915225;29;20338;-78
2022/01/16 07:18:28;;;;;;;20.23;9.80;;;;;;;;;;4915208;29;20241;-77
2022/01/16 07:20:54;;;;;;;19.63;8.87;;;;;;;;;;4916824;29;20182;-79
2022/01/16 07:23:20;;;;;;;15.67;8.23;;;;;;;;;;4914513;29;20182;-79
2022/01/16 07:25:46;;;;;;;12.83;7.03;;;;;;;;;;4900177;29;20189;-78
2022/01/16 07:28:13;;;;;;;13.53;7.40;;;;;;;;;;4916641;29;20604;-77
2022/01/16 07:30:39;;;;;;;10.33;5.40;;;;;;;;;;4915595;29;20693;-78
2022/01/16 07:33:06;;;;;;;10.17;5.50;;;;;;;;;;4900267;29;20220;-78
2022/01/16 07:35:33;;;;;;;9.13;5.47;;;;;;;;;;4914791;29;20218;-80
2022/01/16 07:37:59;;;;;;;11.23;6.77;;;;;;;;;;4899439;29;20208;-79
2022/01/16 07:40:26;;;;;;;11.67;6.63;;;;;;;;;;4914776;29;20201;-79
2022/01/16 07:42:52;;;;;;;10.10;5.70;;;;;;;;;;4914491;29;20186;-78
2022/01/16 07:45:18;;;;;;;9.37;5.83;;;;;;;;;;4899303;29;20200;-78
2022/01/16 07:47:44;;;;;;;10.37;5.63;;;;;;;;;;4899578;29;20193;-77
2022/01/16 07:50:11;;;;;;;10.00;5.10;;;;;;;;;;4902143;29;20301;-77
2022/01/16 07:52:37;;;;;;;9.90;5.97;;;;;;;;;;4904593;29;20182;-77
2022/01/16 07:55:03;;;;;;;11.10;6.50;;;;;;;;;;4904252;29;20210;-78
2022/01/16 07:57:29;;;;;;;10.93;6.17;;;;;;;;;;4920795;29;20193;-76
2022/01/16 07:59:55;;;;;;;10.97;6.70;;;;;;;;;;4921485;29;20199;-78
2022/01/16 08:02:21;;;;;;;11.70;6.37;;;;;;;;;;4918473;29;20277;-77
2022/01/16 08:04:47;;;;;;;11.03;6.60;;;;;;;;;;4920596;29;20236;-78
2022/01/16 08:07:13;;;;;;;11.87;6.30;;;;;;;;;;4921184;29;20268;-77
2022/01/16 08:09:40;;;;;;;10.80;6.33;;;;;;;;;;4919939;29;20229;-77
2022/01/16 08:12:07;;;;;;;13.13;7.00;;;;;;;;;;4919113;29;20193;-78
2022/01/16 08:14:33;;;;;;;11.43;6.60;;;;;;;;;;4919116;29;20210;-80
2022/01/16 08:17:00;;;;;;;12.73;7.20;;;;;;;;;;4903040;29;20273;-79
2022/01/16 08:19:26;;;;;;;12.67;7.30;;;;;;;;;;4919038;29;20209;-78
2022/01/16 08:21:52;;;;;;;12.83;7.20;;;;;;;;;;4903187;29;20264;-78
2022/01/16 08:24:18;;;;;;;13.60;7.10;;;;;;;;;;4902534;29;20221;-79
2022/01/16 08:26:44;;;;;;;11.60;6.03;;;;;;;;;;4918265;29;20280;-77
2022/01/16 08:29:10;;;;;;;13.60;6.97;;;;;;;;;;4917955;29;20266;-76
2022/01/16 08:31:36;;;;;;;11.17;6.93;;;;;;;;;;4917991;29;20182;-76
2022/01/16 08:34:02;;;;;;;15.67;8.90;;;;;;;;;;4901476;29;20212;-77
2022/01/16 08:36:29;;;;;;;15.17;7.40;;;;;;;;;;4901685;29;20648;-76
2022/01/16 08:38:55;;;;;;;12.53;7.00;;;;;;;;;;4917733;29;20212;-77
2022/01/16 08:41:24;;;;;;;13.57;7.17;;;;;;;;;;4917190;29;20255;-76
2022/01/16 08:43:51;;;;;;;12.07;6.97;;;;;;;;;;4901584;29;20243;-76
2022/01/16 08:46:18;;;;;;;15.17;7.17;;;;;;;;;;4917306;29;20275;-75
2022/01/16 08:48:44;;;;;;;16.97;8.53;;;;;;;;;;4917233;29;20771;-76
2022/01/16 08:51:10;;;;;;;16.37;8.13;;;;;;;;;;4917116;29;20677;-76
2022/01/16 08:53:36;;;;;;;20.20;9.47;;;;;;;;;;4916757;29;20642;-76
2022/01/16 08:56:02;;;;;;;16.70;8.63;;;;;;;;;;4917004;29;20224;-75
2022/01/16 08:58:28;;;;;;;18.37;9.93;;;;;;;;;;4918421;29;20246;-76
2022/01/16 09:00:55;;;;;;;18.20;9.67;;;;;;;;;;4900954;29;20193;-75
2022/01/16 09:03:22;;;;;;;19.50;10.03;;;;;;;;;;4916793;29;20234;-76
2022/01/16 09:05:48;;;;;;;19.93;11.30;;;;;;;;;;4916883;29;20192;-76
2022/01/16 09:08:15;;;;;;;28.27;15.57;;;;;;;;;;4901126;29;20187;-75
2022/01/16 09:10:41;;;;;;;20.83;11.23;;;;;;;;;;4900874;29;20225;-75
2022/01/16 09:13:11;;;;;;;19.67;10.70;;;;;;;;;;4916689;29;20193;-75
2022/01/16 09:15:37;;;;;;;21.10;11.73;;;;;;;;;;4916550;29;20208;-76
2022/01/16 09:18:03;;;;;;;19.70;9.40;;;;;;;;;;4901249;29;20277;-77
2022/01/16 09:20:29;;;;;;;18.90;10.23;;;;;;;;;;4901082;29;20241;-76
2022/01/16 09:22:55;;;;;;;20.63;9.77;;;;;;;;;;4916272;29;20224;-76
2022/01/16 09:25:22;;;;;;;21.67;10.73;;;;;;;;;;4917568;29;20182;-77
2022/01/16 09:27:48;;;;;;;23.20;11.83;;;;;;;;;;4916638;29;20186;-76
2022/01/16 09:30:15;;;;;;;21.47;11.47;;;;;;;;;;4916745;29;20206;-76
2022/01/16 09:32:41;;;;;;;27.13;14.20;;;;;;;;;;4919489;29;20184;-77
2022/01/16 09:35:08;;;;;;;25.80;12.53;;;;;;;;;;4906499;29;20217;-77
2022/01/16 09:37:35;;;;;;;24.00;13.73;;;;;;;;;;4922151;29;20182;-77
2022/01/16 09:40:01;;;;;;;22.10;12.27;;;;;;;;;;4904654;29;20227;-77
2022/01/16 09:42:27;;;;;;;18.47;9.73;;;;;;;;;;4918743;29;20208;-77
2022/01/16 09:44:53;;;;;;;20.50;10.27;;;;;;;;;;4920484;29;20185;-78
2022/01/16 09:47:19;;;;;;;21.57;11.67;;;;;;;;;;4923730;29;20690;-78
2022/01/16 09:49:46;;;;;;;25.37;12.30;;;;;;;;;;4908222;29;20209;-78
2022/01/16 09:52:13;;;;;;;22.67;11.77;;;;;;;;;;4909293;29;20191;-78
2022/01/16 09:54:39;;;;;;;15.57;8.53;;;;;;;;;;4906924;29;20213;-80
2022/01/16 09:57:05;;;;;;;31.63;14.73;;;;;;;;;;4909005;29;20250;-78
2022/01/16 09:59:31;;;;;;;16.63;9.37;;;;;;;;;;4905994;29;20202;-80
2022/01/16 10:01:57;;;;;;;15.90;8.37;;;;;;;;;;4917819;29;20189;-78
2022/01/16 10:04:37;;;;;;;16.67;9.97;;;;;;;;;;4901831;29;20279;-78
2022/01/16 10:07:07;;;;;;;17.73;10.30;;;;;;;;;;4921733;29;20219;-77
2022/01/16 10:09:37;;;;;;;17.67;9.73;;;;;;;;;;4904720;29;20271;-77
2022/01/16 10:12:13;;;;;;;17.10;9.23;;;;;;;;;;4919075;29;20198;-77
2022/01/16 10:14:46;;;;;;;17.73;9.43;;;;;;;;;;4918470;29;20208;-82
2022/01/16 10:17:14;;;;;;;20.03;10.80;;;;;;;;;;4901376;29;20213;-79
2022/01/16 10:19:40;;;;;;;16.43;9.23;;;;;;;;;;4900488;29;20201;-76
2022/01/16 10:22:11;;;;;;;15.87;10.07;;;;;;;;;;4915953;29;20193;-80
2022/01/16 10:24:39;;;;;;;18.53;10.67;;;;;;;;;;4899799;29;20560;-80
2022/01/16 10:27:08;;;;;;;16.90;9.47;;;;;;;;;;4909484;29;20189;-80
2022/01/16 10:29:45;;;;;;;19.60;11.27;;;;;;;;;;4921910;29;20236;-81
2022/01/16 10:32:19;;;;;;;15.33;10.50;;;;;;;;;;4920662;29;20181;-80
2022/01/16 10:34:46;;;;;;;14.87;8.07;;;;;;;;;;4905186;29;20568;-79
2022/01/16 10:37:20;;;;;;;12.60;7.87;;;;;;;;;;4904849;29;20190;-78
2022/01/16 10:39:58;;;;;;;14.27;9.47;;;;;;;;;;4916476;29;20244;-79
2022/01/16 10:42:25;;;;;;;12.00;7.20;;;;;;;;;;4915595;29;20189;-80
2022/01/16 10:44:55;;;;;;;11.43;6.80;;;;;;;;;;4915519;29;20197;-79
2022/01/16 10:47:22;;;;;;;10.77;5.93;;;;;;;;;;4915735;29;20182;-80
2022/01/16 10:50:05;;;;;;;11.80;6.60;;;;;;;;;;4915426;29;20268;-79
2022/01/16 10:52:31;;;;;;;10.77;6.40;;;;;;;;;;4900133;29;20193;-79
2022/01/16 10:55:08;;;;;;;11.73;6.70;;;;;;;;;;4915796;29;20206;-78
2022/01/16 10:57:34;;;;;;;17.87;8.27;;;;;;;;;;4901304;29;20644;-79
2022/01/16 11:00:06;;;;;;;13.27;6.93;;;;;;;;;;4916707;29;20223;-78
2022/01/16 11:02:32;;;;;;;11.53;7.47;;;;;;;;;;4918074;29;20210;-78
2022/01/16 11:05:15;;;;;;;14.80;7.57;;;;;;;;;;4902491;29;20201;-78
2022/01/16 11:07:42;;;;;;;12.87;6.90;;;;;;;;;;4902953;29;20186;-78
2022/01/16 11:10:28;;;;;;;12.03;7.03;;;;;;;;;;4917461;29;20712;-78
2022/01/16 11:12:55;;;;;;;12.80;7.37;;;;;;;;;;4918116;29;20613;-79
2022/01/16 11:15:21;;;;;;;12.10;6.73;;;;;;;;;;4900163;29;20213;-80
2022/01/16 11:17:49;;;;;;;13.53;7.60;;;;;;;;;;4915758;29;20205;-80
2022/01/16 11:20:18;;;;;;;11.90;7.27;;;;;;;;;;4918738;29;20237;-80
2022/01/16 11:25:31;;;;;;;24.33;12.63;;;;;;;;;;4918746;29;20190;-77
2022/01/16 11:28:08;;;;;;;24.40;13.13;;;;;;;;;;4918647;29;20256;-77
2022/01/16 11:30:35;;;;;;;12.90;7.53;;;;;;;;;;4918649;29;20672;-76
2022/01/16 11:33:02;;;;;;;12.47;8.00;;;;;;;;;;4918596;29;20236;-77
2022/01/16 11:35:29;;;;;;;11.20;6.77;;;;;;;;;;4918720;29;20204;-75
2022/01/16 11:37:55;;;;;;;10.23;6.47;;;;;;;;;;4903158;29;20190;-77
2022/01/16 11:40:25;;;;;;;9.33;6.23;;;;;;;;;;4918785;29;20285;-81
2022/01/16 11:43:10;;;;;;;10.73;7.10;;;;;;;;;;4903320;29;20232;-81
2022/01/16 11:45:45;;;;;;;10.20;7.37;;;;;;;;;;4918262;29;20535;-81
2022/01/16 11:48:11;;;;;;;12.67;7.13;;;;;;;;;;4918298;29;20252;-80
2022/01/16 11:50:37;;;;;;;12.10;7.53;;;;;;;;;;4918180;29;20740;-79
2022/01/16 11:53:03;;;;;;;13.40;7.90;;;;;;;;;;4918033;29;20199;-80
2022/01/16 11:55:35;;;;;;;12.40;8.13;;;;;;;;;;4902372;29;20221;-80
2022/01/16 11:58:01;;;;;;;14.33;8.43;;;;;;;;;;4919321;29;20582;-80
2022/01/16 12:00:48;;;;;;;13.73;8.80;;;;;;;;;;4902632;29;20204;-80
2022/01/16 12:03:34;;;;;;;16.17;9.40;;;;;;;;;;4917964;29;20186;-80
2022/01/16 12:06:26;;;;;;;14.00;9.00;;;;;;;;;;4919304;29;20658;-81
2022/01/16 12:08:56;;;;;;;17.00;9.30;;;;;;;;;;4915592;29;20226;-80
2022/01/16 12:11:35;;;;;;;16.53;9.50;;;;;;;;;;4918270;29;20199;-81
2022/01/16 12:14:01;;;;;;;15.60;9.57;;;;;;;;;;4917599;29;20186;-80
2022/01/16 12:16:31;;;;;;;15.83;10.30;;;;;;;;;;4918172;29;20193;-80
2022/01/16 12:50:14;;;;;;;17.70;10.43;;;;;;;;;;5324205;23;20308;-81
2022/01/16 12:52:47;;;;;;;16.20;10.03;;;;;;;;;;4920324;29;20218;-80
2022/01/16 12:55:13;;;;;;;19.80;11.33;;;;;;;;;;4904257;29;20285;-80
2022/01/16 12:57:39;;;;;;;19.77;10.73;;;;;;;;;;4920266;29;20260;-81
2022/01/16 13:00:12;;;;;;;17.07;10.13;;;;;;;;;;4920147;29;20731;-81
2022/01/16 13:02:38;;;;;;;16.77;9.60;;;;;;;;;;4933510;23;20718;-79
2022/01/16 13:05:05;;;;;;;17.93;10.70;;;;;;;;;;4937525;29;20265;-80
2022/01/16 13:07:32;;;;;;;18.77;10.33;;;;;;;;;;4938863;29;20202;-79
2022/01/16 13:09:58;;;;;;;19.43;10.77;;;;;;;;;;4937474;29;20189;-79
2022/01/16 13:12:24;;;;;;;20.37;11.33;;;;;;;;;;4918286;29;20208;-79
2022/01/16 13:14:50;;;;;;;18.53;10.70;;;;;;;;;;4917708;29;20214;-79
2022/01/16 13:17:17;;;;;;;19.23;10.43;;;;;;;;;;4917895;29;20307;-81
2022/01/16 13:19:56;;;;;;;18.70;10.93;;;;;;;;;;4918642;29;20182;-79
2022/01/16 13:22:26;;;;;;;20.20;11.40;;;;;;;;;;4918535;29;20281;-79
2022/01/16 13:24:52;;;;;;;23.13;12.03;;;;;;;;;;4918192;29;20182;-79
2022/01/16 13:27:29;;;;;;;20.77;12.03;;;;;;;;;;4918305;29;20179;-79
2022/01/16 13:30:01;;;;;;;22.70;11.63;;;;;;;;;;4919250;29;20178;-79
2022/01/16 13:32:28;;;;;;;21.47;12.37;;;;;;;;;;4918418;29;20213;-79
2022/01/16 13:34:55;;;;;;;22.90;12.57;;;;;;;;;;4917959;29;20210;-79
2022/01/16 13:37:25;;;;;;;24.67;13.77;;;;;;;;;;4918637;29;20185;-79
2022/01/16 13:39:52;;;;;;;20.53;11.50;;;;;;;;;;4918640;29;20194;-79
2022/01/16 13:42:38;;;;;;;26.50;13.30;;;;;;;;;;4918006;29;20206;-79
2022/01/16 13:45:21;;;;;;;24.63;13.23;;;;;;;;;;4917817;29;20192;-79
2022/01/16 13:48:07;;;;;;;25.93;13.37;;;;;;;;;;4917079;29;20220;-79
2022/01/16 13:50:41;;;;;;;28.77;14.10;;;;;;;;;;4917854;29;20182;-79
2022/01/16 13:53:16;;;;;;;27.77;13.43;;;;;;;;;;4918128;29;20268;-79
2022/01/16 13:55:55;;;;;;;29.43;14.63;;;;;;;;;;4917741;29;20744;-79
2022/01/16 13:58:23;;;;;;;26.87;13.83;;;;;;;;;;4918638;29;20210;-79
2022/01/16 14:00:49;;;;;;;27.57;14.33;;;;;;;;;;4918384;29;20265;-79
2022/01/16 14:03:23;;;;;;;28.67;15.13;;;;;;;;;;4917697;29;20651;-79
2022/01/16 14:05:51;;;;;;;32.43;15.37;;;;;;;;;;4917868;29;20208;-79
2022/01/16 14:08:20;;;;;;;32.17;15.80;;;;;;;;;;4919531;29;20657;-78
2022/01/16 14:10:46;;;;;;;34.80;16.60;;;;;;;;;;4918209;29;20265;-78
2022/01/16 14:13:13;;;;;;;34.53;17.17;;;;;;;;;;4917610;29;20254;-79
2022/01/16 14:15:39;;;;;;;36.57;17.43;;;;;;;;;;4917611;29;20210;-79
2022/01/16 14:18:12;;;;;;;38.13;16.87;;;;;;;;;;4917630;29;20614;-79
2022/01/16 14:21:58;;;;;;;37.63;17.00;;;;;;;;;;4918908;29;20181;-79
2022/01/16 14:23:33;;;;;;;38.37;16.07;;;;;;;;;;4917572;29;20206;-78
2022/01/16 14:25:59;;;;;;;36.20;15.90;;;;;;;;;;4917657;29;20190;-78
2022/01/16 14:28:25;;;;;;;40.77;17.63;;;;;;;;;;4917511;29;20194;-78
2022/01/16 14:30:51;;;;;;;38.57;17.17;;;;;;;;;;4917864;29;20186;-78
2022/01/16 14:33:17;;;;;;;37.40;17.20;;;;;;;;;;4917430;29;20202;-79
2022/01/16 14:35:43;;;;;;;37.70;17.27;;;;;;;;;;4917655;29;20681;-78
2022/01/16 14:38:11;;;;;;;38.13;16.73;;;;;;;;;;4917015;29;20774;-79
2022/01/16 14:40:37;;;;;;;40.47;19.47;;;;;;;;;;4917239;29;20208;-79
2022/01/16 14:43:04;;;;;;;39.93;18.17;;;;;;;;;;4917396;29;20203;-79
2022/01/16 14:45:30;;;;;;;46.07;21.27;;;;;;;;;;4916892;29;20254;-79
2022/01/16 14:47:56;;;;;;;36.60;17.43;;;;;;;;;;4917006;29;20277;-79
2022/01/16 14:50:24;;;;;;;42.00;19.40;;;;;;;;;;4917398;29;20217;-79
2022/01/16 14:52:50;;;;;;;38.20;17.70;;;;;;;;;;4917537;29;20214;-79
2022/01/16 14:55:16;;;;;;;39.93;18.53;;;;;;;;;;4917004;29;20261;-79
2022/01/16 14:57:42;;;;;;;34.20;17.27;;;;;;;;;;4916603;29;20178;-79
2022/01/16 15:00:09;;;;;;;38.63;17.57;;;;;;;;;;4917248;29;20181;-78
2022/01/16 15:02:37;;;;;;;38.60;18.60;;;;;;;;;;4917013;29;20309;-79
2022/01/16 15:05:03;;;;;;;35.73;17.63;;;;;;;;;;4916972;29;20186;-79
2022/01/16 15:07:29;;;;;;;39.93;17.80;;;;;;;;;;4918626;29;20182;-79
2022/01/16 15:09:55;;;;;;;39.03;18.97;;;;;;;;;;4918743;29;20178;-79
2022/01/16 15:12:22;;;;;;;39.23;17.77;;;;;;;;;;4917171;29;20683;-79
2022/01/16 15:14:48;;;;;;;36.77;18.37;;;;;;;;;;4916804;29;20202;-79
2022/01/16 15:17:15;;;;;;;34.57;17.13;;;;;;;;;;4917022;29;20190;-79
2022/01/16 15:19:41;;;;;;;40.03;18.50;;;;;;;;;;4916954;29;20238;-79
2022/01/16 15:22:12;;;;;;;35.10;17.00;;;;;;;;;;4917006;29;20560;-79
2022/01/16 15:24:39;;;;;;;34.40;16.50;;;;;;;;;;4917661;29;20182;-79
2022/01/16 15:27:05;;;;;;;38.13;18.93;;;;;;;;;;4916860;29;20186;-79
2022/01/16 15:29:31;;;;;;;38.77;18.13;;;;;;;;;;4916867;29;20186;-79
2022/01/16 15:31:57;;;;;;;35.60;17.50;;;;;;;;;;4916598;29;20210;-79
2022/01/16 15:34:23;;;;;;;37.77;18.37;;;;;;;;;;4916701;29;20194;-79
2022/01/16 15:36:49;;;;;;;41.70;18.47;;;;;;;;;;4916371;29;20209;-79
2022/01/16 15:39:15;;;;;;;35.63;17.07;;;;;;;;;;4917295;29;20186;-78
2022/01/16 15:41:41;;;;;;;37.53;16.87;;;;;;;;;;4917444;29;20353;-79
2022/01/16 15:44:07;;;;;;;39.63;17.33;;;;;;;;;;4917003;29;20744;-78
2022/01/16 15:46:46;;;;;;;38.17;18.13;;;;;;;;;;4916658;29;20194;-79
2022/01/16 15:49:12;;;;;;;34.30;16.67;;;;;;;;;;4917369;29;20174;-78